首页
METAR-TAF:

METAR-TAF

机场 :

Middleton Field

Evergreen, 阿拉巴马州, 美国

纬度: 31-25-08N, 经度: 087-02-53W, 海拔: 78米

当前天气观测

该预报发布于18分钟前的06:53 UTC
静风
温度 21°C
湿度 88%
气压 1018 hPa
能見度: 9.7公里
阴天层高于7500英尺
小雨, 轻雾

METAR: KGZH 150653Z AUTO 00000KT 6SM -RA BR OVC075 21/19 A3007 RMK AO2 SLP178 P0002 T02110189 $

时间: 02:11 (07:11 UTC)


TAF: 丢失

超过4000个机场的气象观测和天气预报(METAR&TAF报告)。

可查询的气象台以黄色和红色小点在地图上表示。

将鼠标移到小点上方,可查看气象台名称。

然后点击查看天气观测和预报。

如需切换地图:点击带黑十字的绿色按钮放大地图;点击带横线的绿色按钮缩小地图;或者点击绿色箭头查看邻近地区的地图。


METAR-TAF: